createdAt,value
2022-07-25T00:01:44.141Z,9.87
2022-07-25T00:04:12.681Z,9.13
2022-07-25T00:06:42.023Z,10.27
2022-07-25T00:09:09.619Z,9.30
2022-07-25T00:11:36.350Z,9.50
2022-07-25T00:14:03.526Z,9.07
2022-07-25T00:16:30.643Z,10.60
2022-07-25T00:18:57.405Z,10.13
2022-07-25T00:21:24.084Z,9.60
2022-07-25T00:23:50.839Z,9.80
2022-07-25T00:26:17.525Z,9.80
2022-07-25T00:28:44.375Z,10.53
2022-07-25T00:31:11.166Z,10.17
2022-07-25T00:33:40.141Z,9.93
2022-07-25T00:36:08.868Z,9.97
2022-07-25T00:38:35.589Z,9.20
2022-07-25T00:41:03.958Z,10.77
2022-07-25T00:43:30.872Z,10.00
2022-07-25T00:45:58.784Z,10.77
2022-07-25T00:48:27.633Z,10.50
2022-07-25T00:50:55.460Z,9.53
2022-07-25T00:53:22.531Z,9.47
2022-07-25T00:55:49.311Z,9.90
2022-07-25T00:58:16.055Z,9.47
2022-07-25T01:00:42.747Z,9.97
2022-07-25T01:03:09.524Z,9.67
2022-07-25T01:05:36.362Z,10.50
2022-07-25T01:08:04.281Z,11.67
2022-07-25T01:10:34.632Z,11.77
2022-07-25T01:13:02.322Z,10.27
2022-07-25T01:15:29.123Z,9.73
2022-07-25T01:17:55.873Z,10.20
2022-07-25T01:20:24.800Z,10.70
2022-07-25T01:22:52.388Z,9.60
2022-07-25T01:25:19.761Z,9.77
2022-07-25T01:27:52.724Z,9.23
2022-07-25T01:30:22.711Z,11.02
2022-07-25T01:32:49.547Z,9.67
2022-07-25T01:35:16.394Z,10.70
2022-07-25T01:37:46.149Z,10.67
2022-07-25T01:40:14.194Z,10.10
2022-07-25T01:42:42.348Z,10.47
2022-07-25T01:45:10.139Z,10.53
2022-07-25T01:47:36.949Z,10.23
2022-07-25T01:50:05.287Z,10.00
2022-07-25T01:52:32.366Z,10.20
2022-07-25T01:54:59.303Z,10.40
2022-07-25T01:57:31.149Z,10.30
2022-07-25T01:59:58.730Z,10.70
2022-07-25T02:02:26.310Z,9.97
2022-07-25T02:04:53.411Z,9.70
2022-07-25T02:07:20.573Z,10.48
2022-07-25T02:09:47.252Z,10.15
2022-07-25T02:12:13.946Z,11.53
2022-07-25T02:14:40.927Z,10.30
2022-07-25T02:17:07.973Z,10.50
2022-07-25T02:19:34.790Z,10.70
2022-07-25T02:22:01.484Z,10.90
2022-07-25T02:24:28.305Z,11.40
2022-07-25T02:26:55.051Z,9.60
2022-07-25T02:29:22.304Z,10.80
2022-07-25T02:31:49.142Z,10.40
2022-07-25T02:34:15.879Z,10.73
2022-07-25T02:36:43.202Z,11.05
2022-07-25T02:39:10.058Z,10.85
2022-07-25T02:41:36.823Z,11.70
2022-07-25T02:44:05.201Z,9.87
2022-07-25T02:46:32.691Z,10.60
2022-07-25T02:48:59.484Z,10.20
2022-07-25T02:51:26.473Z,10.50
2022-07-25T02:53:58.178Z,9.90
2022-07-25T02:56:29.968Z,11.35
2022-07-25T02:58:57.529Z,10.13
2022-07-25T03:01:24.471Z,10.98
2022-07-25T03:03:51.306Z,10.67
2022-07-25T03:06:18.180Z,10.73
2022-07-25T03:08:44.963Z,10.65
2022-07-25T03:11:12.767Z,11.30
2022-07-25T03:13:39.593Z,10.43
2022-07-25T03:16:06.829Z,11.20
2022-07-25T03:18:33.525Z,11.40
2022-07-25T03:21:00.208Z,11.20
2022-07-25T03:23:28.208Z,10.60
2022-07-25T03:25:55.714Z,10.88
2022-07-25T03:28:22.603Z,11.90
2022-07-25T03:30:49.401Z,11.43
2022-07-25T03:33:16.103Z,10.73
2022-07-25T03:35:45.209Z,10.77
2022-07-25T03:38:11.918Z,11.47
2022-07-25T03:40:39.553Z,10.13
2022-07-25T03:43:06.405Z,10.13
2022-07-25T03:45:33.139Z,10.75
2022-07-25T03:47:59.846Z,11.75
2022-07-25T03:50:26.556Z,10.73
2022-07-25T03:52:53.212Z,10.40
2022-07-25T03:55:19.879Z,11.05
2022-07-25T03:57:47.194Z,10.80
2022-07-25T04:00:14.163Z,11.82
2022-07-25T04:02:40.950Z,10.40
2022-07-25T04:05:08.402Z,11.90
2022-07-25T04:07:35.886Z,11.93
2022-07-25T04:10:06.686Z,11.05
2022-07-25T04:12:33.772Z,12.20
2022-07-25T04:15:01.179Z,12.30
2022-07-25T04:17:27.906Z,11.38
2022-07-25T04:19:54.572Z,11.80
2022-07-25T04:22:22.471Z,11.60
2022-07-25T04:24:49.226Z,12.83
2022-07-25T04:27:15.932Z,11.20
2022-07-25T04:29:42.708Z,12.37
2022-07-25T04:32:09.576Z,11.27
2022-07-25T04:34:36.397Z,13.60
2022-07-25T04:37:03.078Z,10.87
2022-07-25T04:39:29.775Z,12.02
2022-07-25T04:41:56.502Z,11.27
2022-07-25T04:44:23.211Z,11.93
2022-07-25T04:46:49.953Z,11.85
2022-07-25T04:49:16.792Z,11.05
2022-07-25T04:51:43.608Z,10.05
2022-07-25T04:54:10.524Z,11.30
2022-07-25T04:56:37.346Z,11.70
2022-07-25T04:59:06.874Z,11.63
2022-07-25T05:01:34.652Z,10.82
2022-07-25T05:04:01.726Z,11.30
2022-07-25T05:06:28.539Z,10.80
2022-07-25T05:08:55.540Z,12.50
2022-07-25T05:11:22.343Z,10.23
2022-07-25T05:13:48.998Z,12.38
2022-07-25T05:16:15.723Z,10.43
2022-07-25T05:18:42.443Z,11.77
2022-07-25T05:21:12.945Z,12.65
2022-07-25T05:23:41.005Z,12.70
2022-07-25T05:26:08.000Z,12.43
2022-07-25T05:28:34.734Z,12.50
2022-07-25T05:31:01.612Z,11.57
2022-07-25T05:33:28.551Z,12.32
2022-07-25T05:35:55.260Z,11.87
2022-07-25T05:38:21.969Z,12.03
2022-07-25T05:40:49.181Z,11.82
2022-07-25T05:43:15.898Z,13.00
2022-07-25T05:45:42.629Z,10.30
2022-07-25T05:48:09.356Z,11.50
2022-07-25T05:50:39.316Z,11.32
2022-07-25T05:53:06.574Z,12.90
2022-07-25T05:55:33.346Z,12.30
2022-07-25T05:58:00.224Z,10.50
2022-07-25T06:00:29.622Z,11.30
2022-07-25T06:03:00.381Z,11.87
2022-07-25T06:05:27.426Z,11.93
2022-07-25T06:07:54.294Z,12.40
2022-07-25T06:10:22.052Z,12.30
2022-07-25T06:12:48.788Z,12.87
2022-07-25T06:15:22.366Z,12.67
2022-07-25T06:17:53.639Z,10.47
2022-07-25T06:20:20.556Z,12.23
2022-07-25T06:22:47.474Z,11.50
2022-07-25T06:25:14.972Z,12.43
2022-07-25T06:27:42.089Z,11.67
2022-07-25T06:30:19.237Z,10.77
2022-07-25T06:32:48.208Z,11.40
2022-07-25T06:35:15.481Z,10.93
2022-07-25T06:37:42.479Z,10.60
2022-07-25T06:40:10.046Z,10.43
2022-07-25T06:42:41.839Z,9.57
2022-07-25T06:45:10.891Z,10.13
2022-07-25T06:47:39.559Z,9.17
2022-07-25T06:50:09.019Z,8.60
2022-07-25T06:52:38.986Z,8.67
2022-07-25T06:55:07.651Z,8.47
2022-07-25T06:57:34.562Z,8.37
2022-07-25T07:00:01.449Z,7.03
2022-07-25T07:02:28.141Z,7.40
2022-07-25T07:04:54.840Z,7.70
2022-07-25T07:07:21.506Z,7.30
2022-07-25T07:09:48.179Z,8.07
2022-07-25T07:12:14.890Z,7.63
2022-07-25T07:14:43.617Z,7.43
2022-07-25T07:17:10.413Z,7.30
2022-07-25T07:19:43.776Z,7.10
2022-07-25T07:22:10.439Z,7.20
2022-07-25T07:24:42.851Z,7.27
2022-07-25T07:27:11.075Z,8.13
2022-07-25T07:29:37.768Z,7.63
2022-07-25T07:32:06.569Z,8.50
2022-07-25T07:34:33.368Z,7.53
2022-07-25T07:37:00.037Z,8.47
2022-07-25T07:39:26.685Z,8.37
2022-07-25T07:41:53.441Z,8.80
2022-07-25T07:44:20.449Z,8.40
2022-07-25T07:46:47.162Z,8.13
2022-07-25T07:49:13.908Z,7.90
2022-07-25T07:51:40.740Z,8.30
2022-07-25T07:54:26.219Z,8.90
2022-07-25T07:56:53.000Z,9.30
2022-07-25T07:59:19.670Z,8.40
2022-07-25T08:01:46.396Z,9.53
2022-07-25T08:04:13.607Z,9.20
2022-07-25T08:06:40.678Z,8.40
2022-07-25T08:09:07.613Z,8.67
2022-07-25T08:11:34.997Z,8.20
2022-07-25T08:14:01.867Z,8.67
2022-07-25T08:16:28.614Z,8.13
2022-07-25T08:18:55.399Z,8.50
2022-07-25T08:21:22.065Z,8.43
2022-07-25T08:23:48.759Z,9.07
2022-07-25T08:26:15.809Z,9.17
2022-07-25T08:28:42.927Z,9.50
2022-07-25T08:31:10.243Z,8.53
2022-07-25T08:33:37.383Z,8.40
2022-07-25T08:36:04.323Z,8.43
2022-07-25T08:38:31.076Z,8.63
2022-07-25T08:40:58.812Z,8.63
2022-07-25T08:43:25.611Z,8.37
2022-07-25T08:45:54.173Z,8.17
2022-07-25T08:48:23.534Z,7.70
2022-07-25T08:50:51.141Z,7.87
2022-07-25T08:53:35.573Z,7.70
2022-07-25T08:56:12.575Z,8.03
2022-07-25T08:58:44.111Z,8.00
2022-07-25T09:01:12.522Z,8.00
2022-07-25T09:03:40.320Z,8.57
2022-07-25T09:06:18.887Z,7.20
2022-07-25T09:08:57.086Z,7.93
2022-07-25T09:11:35.068Z,7.70
2022-07-25T09:14:11.077Z,8.10
2022-07-25T09:16:45.123Z,8.47
2022-07-25T09:19:16.090Z,7.67
2022-07-25T09:21:44.763Z,7.50
2022-07-25T09:24:17.942Z,8.03
2022-07-25T09:26:50.205Z,7.60
2022-07-25T09:29:26.010Z,7.80
2022-07-25T09:31:54.688Z,7.97
2022-07-25T09:34:38.661Z,7.57
2022-07-25T09:37:08.402Z,7.93
2022-07-25T09:39:48.262Z,8.03
2022-07-25T09:42:27.620Z,7.53
2022-07-25T09:45:12.892Z,8.40
2022-07-25T09:47:52.221Z,8.40
2022-07-25T09:50:19.875Z,7.53
2022-07-25T09:52:47.009Z,8.00
2022-07-25T09:55:15.640Z,8.03
2022-07-25T09:57:45.049Z,7.00
2022-07-25T10:00:16.184Z,7.80
2022-07-25T10:02:55.279Z,7.50
2022-07-25T10:05:56.469Z,6.83
2022-07-25T10:08:24.001Z,8.17
2022-07-25T10:10:50.670Z,7.97
2022-07-25T10:13:28.586Z,7.73
2022-07-25T10:15:56.704Z,7.90
2022-07-25T10:18:25.880Z,7.90
2022-07-25T10:20:55.424Z,7.93
2022-07-25T10:23:26.229Z,7.50
2022-07-25T10:26:16.085Z,7.60
2022-07-25T10:28:47.630Z,8.50
2022-07-25T10:31:24.787Z,7.20
2022-07-25T10:33:57.067Z,7.20
2022-07-25T10:36:25.495Z,7.57
2022-07-25T10:38:56.060Z,7.10
2022-07-25T10:41:26.340Z,6.50
2022-07-25T10:43:57.762Z,6.90
2022-07-25T10:46:27.217Z,6.80
2022-07-25T10:49:29.262Z,6.00
2022-07-25T10:52:00.824Z,5.87
2022-07-25T10:54:33.762Z,6.90
2022-07-25T10:57:00.768Z,6.70
2022-07-25T10:59:29.040Z,6.70
2022-07-25T11:01:55.972Z,6.70
2022-07-25T11:04:23.824Z,5.93
2022-07-25T11:06:50.599Z,6.37
2022-07-25T11:09:27.433Z,6.67
2022-07-25T11:11:59.641Z,6.53
2022-07-25T11:14:33.239Z,7.97
2022-07-25T11:17:15.131Z,6.73
2022-07-25T11:19:54.524Z,7.70
2022-07-25T11:22:21.591Z,6.67
2022-07-25T11:24:48.781Z,6.97
2022-07-25T11:27:25.496Z,7.10
2022-07-25T11:29:52.303Z,6.40
2022-07-25T11:32:19.421Z,6.13
2022-07-25T11:34:52.705Z,5.57
2022-07-25T11:37:20.158Z,5.07
2022-07-25T11:39:48.088Z,4.83
2022-07-25T11:42:18.107Z,4.67
2022-07-25T11:44:50.654Z,4.50
2022-07-25T11:47:31.736Z,4.10
2022-07-25T11:50:04.276Z,4.80
2022-07-25T11:52:36.416Z,4.70
2022-07-25T11:55:06.196Z,4.43
2022-07-25T11:57:35.411Z,5.57
2022-07-25T12:00:08.214Z,4.87
2022-07-25T12:02:38.062Z,4.50
2022-07-25T12:05:10.635Z,5.47
2022-07-25T12:07:41.802Z,5.10
2022-07-25T12:10:12.391Z,5.67
2022-07-25T12:12:52.081Z,5.20
2022-07-25T12:15:27.303Z,4.80
2022-07-25T12:17:55.516Z,4.87
2022-07-25T12:20:28.026Z,4.37
2022-07-25T12:23:04.534Z,4.70
2022-07-25T12:25:37.384Z,4.37
2022-07-25T12:28:05.383Z,4.50
2022-07-25T12:30:32.713Z,4.93
2022-07-25T12:33:00.750Z,4.70
2022-07-25T12:35:28.361Z,5.63
2022-07-25T12:37:55.067Z,5.37
2022-07-25T12:40:22.237Z,4.97
2022-07-25T12:42:49.879Z,4.87
2022-07-25T12:45:17.838Z,4.83
2022-07-25T12:47:46.005Z,5.93
2022-07-25T12:50:13.691Z,5.33
2022-07-25T12:52:41.290Z,4.63
2022-07-25T12:55:10.074Z,4.77
2022-07-25T12:57:37.539Z,5.00
2022-07-25T13:00:06.374Z,5.50
2022-07-25T13:02:33.533Z,5.40
2022-07-25T13:05:00.304Z,5.13
2022-07-25T13:07:27.606Z,5.50
2022-07-25T13:09:54.374Z,5.30
2022-07-25T13:12:22.898Z,4.77
2022-07-25T13:14:49.882Z,4.73
2022-07-25T13:17:16.544Z,4.77
2022-07-25T13:19:43.428Z,4.47
2022-07-25T13:22:10.214Z,4.80
2022-07-25T13:24:36.932Z,4.67
2022-07-25T13:27:04.798Z,4.57
2022-07-25T13:29:32.548Z,4.87
2022-07-25T13:32:01.896Z,5.13
2022-07-25T13:34:28.848Z,4.40
2022-07-25T13:36:55.517Z,5.17
2022-07-25T13:39:22.516Z,4.83
2022-07-25T13:41:49.728Z,5.30
2022-07-25T13:44:16.750Z,4.90
2022-07-25T13:46:46.357Z,4.87
2022-07-25T13:49:13.423Z,5.00
2022-07-25T13:51:40.160Z,5.30
2022-07-25T13:54:07.082Z,4.53
2022-07-25T13:56:33.766Z,5.03
2022-07-25T13:59:01.974Z,5.30
2022-07-25T14:01:28.878Z,5.10
2022-07-25T14:03:55.644Z,4.90
2022-07-25T14:06:22.523Z,5.37
2022-07-25T14:08:49.363Z,5.80
2022-07-25T14:11:16.107Z,6.17
2022-07-25T14:13:43.627Z,6.40
2022-07-25T14:16:11.077Z,7.13
2022-07-25T14:18:37.832Z,6.10
2022-07-25T14:21:04.579Z,6.77
2022-07-25T14:23:31.253Z,6.90
2022-07-25T14:25:58.922Z,7.10
2022-07-25T14:28:26.372Z,6.40
2022-07-25T14:30:53.128Z,6.13
2022-07-25T14:33:19.795Z,6.30
2022-07-25T14:35:46.541Z,6.67
2022-07-25T14:38:13.237Z,6.13
2022-07-25T14:40:42.037Z,6.40
2022-07-25T14:43:08.887Z,6.60
2022-07-25T14:45:37.010Z,6.23
2022-07-25T14:48:06.296Z,6.70
2022-07-25T14:50:33.458Z,6.50
2022-07-25T14:53:00.192Z,6.53
2022-07-25T14:55:26.978Z,6.50
2022-07-25T14:57:53.768Z,6.30
2022-07-25T15:00:22.076Z,6.60
2022-07-25T15:02:51.656Z,6.57
2022-07-25T15:05:18.479Z,6.70
2022-07-25T15:07:45.320Z,7.10
2022-07-25T15:10:12.326Z,6.43
2022-07-25T15:12:39.065Z,6.30
2022-07-25T15:15:06.629Z,6.67
2022-07-25T15:17:33.840Z,7.80
2022-07-25T15:20:00.670Z,7.87
2022-07-25T15:22:27.316Z,6.07
2022-07-25T15:27:40.746Z,6.13
2022-07-25T15:30:07.911Z,6.77
2022-07-25T15:32:34.787Z,6.27
2022-07-25T15:35:01.457Z,5.93
2022-07-25T15:37:29.652Z,6.00
2022-07-25T15:39:56.430Z,5.53
2022-07-25T15:42:28.588Z,5.73
2022-07-25T15:45:15.028Z,4.93
2022-07-25T15:47:45.171Z,5.73
2022-07-25T15:50:15.634Z,5.87
2022-07-25T15:52:42.294Z,5.60
2022-07-25T15:55:09.306Z,6.33
2022-07-25T15:57:36.113Z,6.23
2022-07-25T16:00:05.670Z,5.87
2022-07-25T16:02:32.357Z,5.83
2022-07-25T16:04:59.659Z,5.20
2022-07-25T16:07:27.388Z,5.37
2022-07-25T16:09:55.590Z,5.23
2022-07-25T16:12:28.322Z,5.33
2022-07-25T16:14:56.206Z,5.60
2022-07-25T16:17:23.337Z,5.90
2022-07-25T16:19:50.008Z,6.63
2022-07-25T16:22:16.968Z,5.40
2022-07-25T16:24:43.670Z,5.77
2022-07-25T16:27:10.491Z,5.60
2022-07-25T16:29:37.871Z,5.17
2022-07-25T16:32:05.631Z,5.57
2022-07-25T16:34:32.841Z,5.20
2022-07-25T16:37:01.323Z,5.20
2022-07-25T16:39:28.271Z,5.33
2022-07-25T16:41:55.493Z,5.47
2022-07-25T16:44:23.682Z,5.27
2022-07-25T16:46:50.969Z,5.73
2022-07-25T16:49:17.884Z,5.63
2022-07-25T16:51:45.335Z,6.30
2022-07-25T16:54:12.429Z,6.20
2022-07-25T16:56:39.812Z,6.53
2022-07-25T16:59:07.831Z,5.40
2022-07-25T17:01:35.104Z,6.13
2022-07-25T17:04:01.929Z,4.93
2022-07-25T17:06:28.611Z,7.27
2022-07-25T17:08:55.489Z,6.03
2022-07-25T17:11:22.461Z,6.00
2022-07-25T17:13:49.232Z,6.03
2022-07-25T17:16:16.127Z,5.47
2022-07-25T17:18:43.122Z,5.80
2022-07-25T17:21:10.592Z,5.33
2022-07-25T17:23:37.262Z,5.90
2022-07-25T17:26:05.272Z,4.63
2022-07-25T17:28:32.264Z,5.77
2022-07-25T17:30:59.077Z,5.03
2022-07-25T17:33:26.228Z,5.10
2022-07-25T17:35:53.318Z,4.63
2022-07-25T17:38:23.901Z,4.20
2022-07-25T17:40:52.158Z,3.80
2022-07-25T17:43:18.814Z,4.00
2022-07-25T17:45:45.480Z,3.70
2022-07-25T17:48:12.179Z,3.67
2022-07-25T17:50:38.884Z,3.50
2022-07-25T17:53:05.548Z,4.20
2022-07-25T17:55:36.825Z,3.77
2022-07-25T17:58:05.339Z,3.80
2022-07-25T18:00:32.360Z,4.00
2022-07-25T18:02:59.369Z,3.83
2022-07-25T18:05:26.188Z,3.63
2022-07-25T18:07:53.572Z,4.00
2022-07-25T18:10:24.070Z,3.37
2022-07-25T18:12:50.948Z,3.30
2022-07-25T18:15:17.860Z,4.10
2022-07-25T18:17:46.243Z,3.57
2022-07-25T18:20:14.192Z,4.77
2022-07-25T18:22:41.416Z,3.80
2022-07-25T18:25:10.952Z,3.37
2022-07-25T18:27:42.375Z,3.70
2022-07-25T18:30:10.614Z,3.50
2022-07-25T18:32:38.291Z,3.33
2022-07-25T18:35:05.880Z,3.70
2022-07-25T18:37:32.684Z,3.20
2022-07-25T18:39:59.387Z,3.47
2022-07-25T18:42:29.643Z,3.53
2022-07-25T18:44:57.336Z,3.50
2022-07-25T18:47:26.121Z,4.10
2022-07-25T18:49:54.775Z,3.17
2022-07-25T18:52:22.312Z,3.40
2022-07-25T18:54:50.751Z,3.20
2022-07-25T18:57:17.575Z,3.30
2022-07-25T18:59:44.419Z,3.50
2022-07-25T19:02:11.295Z,3.20
2022-07-25T19:04:38.026Z,3.00
2022-07-25T19:07:04.811Z,3.50
2022-07-25T19:09:31.593Z,3.23
2022-07-25T19:11:58.284Z,3.10
2022-07-25T19:14:27.239Z,3.30
2022-07-25T19:16:54.740Z,3.20
2022-07-25T19:19:21.472Z,3.83
2022-07-25T19:21:48.751Z,3.10
2022-07-25T19:24:15.782Z,3.30
2022-07-25T19:26:43.064Z,3.30
2022-07-25T19:29:16.377Z,3.00
2022-07-25T19:31:43.166Z,3.43
2022-07-25T19:34:11.022Z,3.00
2022-07-25T19:36:38.167Z,3.20
2022-07-25T19:39:06.161Z,3.80
2022-07-25T19:41:33.335Z,3.30
2022-07-25T19:44:00.160Z,3.00
2022-07-25T19:46:31.096Z,3.50
2022-07-25T19:48:58.381Z,3.10
2022-07-25T19:51:25.740Z,3.23
2022-07-25T19:53:52.642Z,3.40
2022-07-25T19:56:20.152Z,3.20
2022-07-25T19:58:46.902Z,3.27
2022-07-25T20:01:13.700Z,3.50
2022-07-25T20:03:41.289Z,3.20
2022-07-25T20:06:08.839Z,3.37
2022-07-25T20:08:36.883Z,3.20
2022-07-25T20:11:03.719Z,3.40
2022-07-25T20:13:30.494Z,3.33
2022-07-25T20:15:58.567Z,3.47
2022-07-25T20:18:25.283Z,3.50
2022-07-25T20:20:51.995Z,3.60
2022-07-25T20:23:18.719Z,3.23
2022-07-25T20:25:45.497Z,3.80
2022-07-25T20:28:12.273Z,3.50
2022-07-25T20:30:39.124Z,3.77
2022-07-25T20:33:09.008Z,3.70
2022-07-25T20:35:37.536Z,3.80
2022-07-25T20:38:09.472Z,3.30
2022-07-25T20:40:46.412Z,3.50
2022-07-25T20:43:15.177Z,3.47
2022-07-25T20:45:42.204Z,3.60
2022-07-25T20:48:09.349Z,3.40
2022-07-25T20:50:39.684Z,3.87
2022-07-25T20:53:07.231Z,4.00
2022-07-25T20:55:34.409Z,3.60
2022-07-25T20:58:01.584Z,3.10
2022-07-25T21:00:30.423Z,3.27
2022-07-25T21:02:58.826Z,3.77
2022-07-25T21:05:26.002Z,3.40
2022-07-25T21:07:52.885Z,3.60
2022-07-25T21:10:20.261Z,3.60
2022-07-25T21:12:47.148Z,3.53
2022-07-25T21:15:14.000Z,3.67
2022-07-25T21:17:41.723Z,3.87
2022-07-25T21:20:13.520Z,3.40
2022-07-25T21:22:40.717Z,3.77
2022-07-25T21:25:08.157Z,3.40
2022-07-25T21:27:35.379Z,3.87
2022-07-25T21:30:02.560Z,3.83
2022-07-25T21:32:29.598Z,3.50
2022-07-25T21:34:56.428Z,3.90
2022-07-25T21:37:23.122Z,3.93
2022-07-25T21:39:50.017Z,3.77
2022-07-25T21:42:16.699Z,3.50
2022-07-25T21:44:44.192Z,3.60
2022-07-25T21:47:11.263Z,3.70
2022-07-25T21:49:56.557Z,3.70
2022-07-25T21:52:29.964Z,3.57
2022-07-25T21:55:02.869Z,4.00
2022-07-25T21:57:29.540Z,3.60
2022-07-25T21:59:56.378Z,4.17
2022-07-25T22:02:23.521Z,3.70
2022-07-25T22:04:50.338Z,3.80
2022-07-25T22:07:17.103Z,3.90
2022-07-25T22:09:43.930Z,4.00
2022-07-25T22:12:10.762Z,4.13
2022-07-25T22:14:38.066Z,3.73
2022-07-25T22:17:05.800Z,3.60
2022-07-25T22:19:33.158Z,3.50
2022-07-25T22:21:59.850Z,3.63
2022-07-25T22:24:26.684Z,3.60
2022-07-25T22:26:53.542Z,3.80
2022-07-25T22:29:20.237Z,3.60
2022-07-25T22:31:47.112Z,3.80
2022-07-25T22:34:13.851Z,3.67
2022-07-25T22:36:40.555Z,3.80
2022-07-25T22:39:07.500Z,4.03
2022-07-25T22:41:34.770Z,4.23
2022-07-25T22:44:01.556Z,4.00
2022-07-25T22:46:30.443Z,4.30
2022-07-25T22:48:58.905Z,3.80
2022-07-25T22:51:26.565Z,3.63
2022-07-25T22:53:53.632Z,4.27
2022-07-25T22:56:20.840Z,4.60
2022-07-25T22:58:49.256Z,4.00
2022-07-25T23:01:17.567Z,3.90
2022-07-25T23:03:44.719Z,4.37
2022-07-25T23:06:11.585Z,4.43
2022-07-25T23:08:38.342Z,3.80
2022-07-25T23:11:06.132Z,4.50
2022-07-25T23:13:34.001Z,5.00
2022-07-25T23:16:00.845Z,4.40
2022-07-25T23:18:30.147Z,4.10
2022-07-25T23:20:56.932Z,4.70
2022-07-25T23:23:23.580Z,4.10
2022-07-25T23:25:50.268Z,4.60
2022-07-25T23:28:16.912Z,4.50
2022-07-25T23:30:43.545Z,4.20
2022-07-25T23:33:10.457Z,4.10
2022-07-25T23:35:37.217Z,4.50
2022-07-25T23:38:04.340Z,4.43
2022-07-25T23:40:31.127Z,4.70
2022-07-25T23:42:57.775Z,4.70
2022-07-25T23:45:26.389Z,4.80
2022-07-25T23:47:54.997Z,4.90
2022-07-25T23:50:22.787Z,4.80
2022-07-25T23:52:49.490Z,5.00
2022-07-25T23:55:16.171Z,4.87
2022-07-25T23:57:43.138Z,4.67
